sensor_id;sensor_type;location;lat;lon;timestamp;pressure;altitude;pressure_sealevel;temperature;humidity
8653;BME280;4364;52.426;9.424;2023-06-24T00:02:26;101911.88;;;15.16;85.41
8653;BME280;4364;52.426;9.424;2023-06-24T00:04:52;101918.50;;;15.10;85.79
8653;BME280;4364;52.426;9.424;2023-06-24T00:07:19;101918.50;;;15.05;85.91
8653;BME280;4364;52.426;9.424;2023-06-24T00:09:48;101917.13;;;15.08;85.92
8653;BME280;4364;52.426;9.424;2023-06-24T00:12:15;101919.59;;;15.04;85.90
8653;BME280;4364;52.426;9.424;2023-06-24T00:14:46;101915.75;;;15.00;85.74
8653;BME280;4364;52.426;9.424;2023-06-24T00:17:13;101911.94;;;14.96;86.84
8653;BME280;4364;52.426;9.424;2023-06-24T00:19:39;101913.31;;;14.93;86.78
8653;BME280;4364;52.426;9.424;2023-06-24T00:22:06;101919.06;;;14.87;87.05
8653;BME280;4364;52.426;9.424;2023-06-24T00:24:33;101922.38;;;14.89;86.91
8653;BME280;4364;52.426;9.424;2023-06-24T00:26:59;101919.34;;;14.90;87.05
8653;BME280;4364;52.426;9.424;2023-06-24T00:29:26;101920.16;;;14.91;86.84
8653;BME280;4364;52.426;9.424;2023-06-24T00:31:53;101923.22;;;14.69;86.88
8653;BME280;4364;52.426;9.424;2023-06-24T00:34:20;101924.53;;;14.56;87.82
8653;BME280;4364;52.426;9.424;2023-06-24T00:36:46;101926.78;;;14.64;87.93
8653;BME280;4364;52.426;9.424;2023-06-24T00:39:13;101928.44;;;14.65;87.69
8653;BME280;4364;52.426;9.424;2023-06-24T00:41:39;101935.25;;;14.73;87.14
8653;BME280;4364;52.426;9.424;2023-06-24T00:44:06;101935.25;;;14.68;87.52
8653;BME280;4364;52.426;9.424;2023-06-24T00:46:34;101934.69;;;14.76;87.00
8653;BME280;4364;52.426;9.424;2023-06-24T00:49:02;101928.66;;;14.84;86.75
8653;BME280;4364;52.426;9.424;2023-06-24T00:51:28;101931.66;;;14.88;86.61
8653;BME280;4364;52.426;9.424;2023-06-24T00:54:00;101925.38;;;14.87;86.57
8653;BME280;4364;52.426;9.424;2023-06-24T00:56:36;101925.13;;;14.78;86.63
8653;BME280;4364;52.426;9.424;2023-06-24T00:59:10;101921.56;;;14.68;86.71
8653;BME280;4364;52.426;9.424;2023-06-24T01:01:39;101918.00;;;14.57;87.58
8653;BME280;4364;52.426;9.424;2023-06-24T01:04:07;101921.84;;;14.61;87.45
8653;BME280;4364;52.426;9.424;2023-06-24T01:06:35;101925.69;;;14.65;87.98
8653;BME280;4364;52.426;9.424;2023-06-24T01:09:02;101925.97;;;14.63;87.68
8653;BME280;4364;52.426;9.424;2023-06-24T01:11:30;101922.91;;;14.60;87.90
8653;BME280;4364;52.426;9.424;2023-06-24T01:13:57;101932.53;;;14.62;88.36
8653;BME280;4364;52.426;9.424;2023-06-24T01:16:49;101928.69;;;14.69;87.88
8653;BME280;4364;52.426;9.424;2023-06-24T01:28:12;101940.44;;;14.54;89.17
8653;BME280;4364;52.426;9.424;2023-06-24T01:31:14;101934.97;;;14.59;88.93
8653;BME280;4364;52.426;9.424;2023-06-24T01:33:49;101936.59;;;14.50;88.99
8653;BME280;4364;52.426;9.424;2023-06-24T01:36:19;101932.50;;;14.42;89.31
8653;BME280;4364;52.426;9.424;2023-06-24T01:38:51;101926.75;;;14.43;89.92
8653;BME280;4364;52.426;9.424;2023-06-24T01:41:24;101933.31;;;14.48;89.72
8653;BME280;4364;52.426;9.424;2023-06-24T01:43:53;101939.31;;;14.44;89.68
8653;BME280;4364;52.426;9.424;2023-06-24T01:46:22;101945.31;;;14.36;89.66
8653;BME280;4364;52.426;9.424;2023-06-24T01:48:55;101939.59;;;14.38;89.46
8653;BME280;4364;52.426;9.424;2023-06-24T01:51:24;101942.31;;;14.38;89.41
8653;BME280;4364;52.426;9.424;2023-06-24T01:54:01;101950.53;;;14.33;89.79
8653;BME280;4364;52.426;9.424;2023-06-24T01:56:28;101943.97;;;14.23;90.06
8653;BME280;4364;52.426;9.424;2023-06-24T01:58:58;101956.25;;;14.21;90.66
8653;BME280;4364;52.426;9.424;2023-06-24T02:01:27;101948.88;;;14.21;90.06
8653;BME280;4364;52.426;9.424;2023-06-24T02:03:56;101950.53;;;14.22;90.56
8653;BME280;4364;52.426;9.424;2023-06-24T02:06:24;101953.25;;;14.17;90.72
8653;BME280;4364;52.426;9.424;2023-06-24T02:08:53;101954.06;;;14.18;90.79
8653;BME280;4364;52.426;9.424;2023-06-24T02:11:22;101958.19;;;14.15;90.96
8653;BME280;4364;52.426;9.424;2023-06-24T02:13:51;101949.66;;;14.06;91.27
8653;BME280;4364;52.426;9.424;2023-06-24T02:16:21;101957.56;;;13.98;92.01
8653;BME280;4364;52.426;9.424;2023-06-24T02:18:48;101947.72;;;13.92;92.60
8653;BME280;4364;52.426;9.424;2023-06-24T02:21:17;101944.13;;;13.86;92.51
8653;BME280;4364;52.426;9.424;2023-06-24T02:23:46;101945.50;;;13.78;92.97
8653;BME280;4364;52.426;9.424;2023-06-24T02:26:15;101942.72;;;13.73;93.28
8653;BME280;4364;52.426;9.424;2023-06-24T02:28:44;101939.16;;;13.67;93.80
8653;BME280;4364;52.426;9.424;2023-06-24T02:31:12;101935.09;;;13.75;93.53
8653;BME280;4364;52.426;9.424;2023-06-24T02:33:39;101945.50;;;13.78;93.41
8653;BME280;4364;52.426;9.424;2023-06-24T02:36:06;101937.56;;;13.77;93.43
8653;BME280;4364;52.426;9.424;2023-06-24T02:38:34;101935.66;;;13.82;93.67
8653;BME280;4364;52.426;9.424;2023-06-24T02:41:00;101937.56;;;13.82;93.80
8653;BME280;4364;52.426;9.424;2023-06-24T02:43:32;101939.97;;;13.73;93.84
8653;BME280;4364;52.426;9.424;2023-06-24T02:46:00;101941.91;;;13.73;93.76
8653;BME280;4364;52.426;9.424;2023-06-24T02:48:29;101936.66;;;13.61;93.54
8653;BME280;4364;52.426;9.424;2023-06-24T02:50:58;101935.84;;;13.60;94.15
8653;BME280;4364;52.426;9.424;2023-06-24T02:53:25;101935.88;;;13.70;93.94
8653;BME280;4364;52.426;9.424;2023-06-24T02:55:55;101938.09;;;13.74;94.40
8653;BME280;4364;52.426;9.424;2023-06-24T02:58:23;101939.19;;;13.78;93.91
8653;BME280;4364;52.426;9.424;2023-06-24T03:00:58;101940.03;;;13.78;93.74
8653;BME280;4364;52.426;9.424;2023-06-24T03:03:34;101943.56;;;13.74;93.59
8653;BME280;4364;52.426;9.424;2023-06-24T03:06:04;101951.75;;;13.68;93.91
8653;BME280;4364;52.426;9.424;2023-06-24T03:08:31;101956.31;;;13.52;94.46
8653;BME280;4364;52.426;9.424;2023-06-24T03:10:58;101962.59;;;13.53;94.50
8653;BME280;4364;52.426;9.424;2023-06-24T03:13:27;101953.59;;;13.58;94.14
8653;BME280;4364;52.426;9.424;2023-06-24T03:16:03;101959.91;;;13.58;93.50
8653;BME280;4364;52.426;9.424;2023-06-24T03:18:36;101965.31;;;13.53;93.74
8653;BME280;4364;52.426;9.424;2023-06-24T03:21:02;101971.34;;;13.55;94.45
8653;BME280;4364;52.426;9.424;2023-06-24T03:23:30;101960.44;;;13.55;94.46
8653;BME280;4364;52.426;9.424;2023-06-24T03:25:57;101973.59;;;13.63;94.20
8653;BME280;4364;52.426;9.424;2023-06-24T03:28:24;101973.63;;;13.74;94.47
8653;BME280;4364;52.426;9.424;2023-06-24T03:31:00;101966.50;;;13.67;94.14
8653;BME280;4364;52.426;9.424;2023-06-24T03:33:26;101963.19;;;13.60;94.27
8653;BME280;4364;52.426;9.424;2023-06-24T03:35:53;101957.47;;;13.67;94.25
8653;BME280;4364;52.426;9.424;2023-06-24T03:38:25;101959.91;;;13.63;94.31
8653;BME280;4364;52.426;9.424;2023-06-24T03:40:52;101965.66;;;13.62;94.56
8653;BME280;4364;52.426;9.424;2023-06-24T03:43:18;101962.34;;;13.60;94.96
8653;BME280;4364;52.426;9.424;2023-06-24T03:45:45;101965.41;;;13.68;94.55
8653;BME280;4364;52.426;9.424;2023-06-24T03:48:12;101971.88;;;13.52;95.23
8653;BME280;4364;52.426;9.424;2023-06-24T03:50:38;101975.09;;;13.39;96.70
8653;BME280;4364;52.426;9.424;2023-06-24T03:53:05;101973.22;;;13.49;96.66
8653;BME280;4364;52.426;9.424;2023-06-24T03:55:33;101969.72;;;13.59;96.48
8653;BME280;4364;52.426;9.424;2023-06-24T03:58:00;101966.75;;;13.66;96.17
8653;BME280;4364;52.426;9.424;2023-06-24T04:00:27;101973.91;;;13.72;96.10
8653;BME280;4364;52.426;9.424;2023-06-24T04:02:53;101975.81;;;13.71;96.13
8653;BME280;4364;52.426;9.424;2023-06-24T04:05:20;101980.69;;;13.69;96.22
8653;BME280;4364;52.426;9.424;2023-06-24T04:07:48;101979.63;;;13.70;96.38
8653;BME280;4364;52.426;9.424;2023-06-24T04:10:17;101982.91;;;13.73;96.49
8653;BME280;4364;52.426;9.424;2023-06-24T04:12:47;101985.09;;;13.76;96.83
8653;BME280;4364;52.426;9.424;2023-06-24T04:15:14;101979.69;;;13.86;96.61
8653;BME280;4364;52.426;9.424;2023-06-24T04:17:40;101979.44;;;13.93;95.96
8653;BME280;4364;52.426;9.424;2023-06-24T04:20:08;101975.03;;;13.86;95.63
8653;BME280;4364;52.426;9.424;2023-06-24T04:22:40;101981.06;;;13.88;95.61
8653;BME280;4364;52.426;9.424;2023-06-24T04:25:08;101988.38;;;13.73;96.94
8653;BME280;4364;52.426;9.424;2023-06-24T04:27:35;101985.63;;;13.73;97.51
8653;BME280;4364;52.426;9.424;2023-06-24T04:30:05;101984.59;;;13.84;97.06
8653;BME280;4364;52.426;9.424;2023-06-24T04:32:32;101987.34;;;13.89;96.97
8653;BME280;4364;52.426;9.424;2023-06-24T04:34:59;101984.06;;;13.87;97.43
8653;BME280;4364;52.426;9.424;2023-06-24T04:37:27;101985.19;;;14.01;97.10
8653;BME280;4364;52.426;9.424;2023-06-24T04:39:55;101987.91;;;13.96;96.99
8653;BME280;4364;52.426;9.424;2023-06-24T04:42:22;101988.50;;;13.98;97.04
8653;BME280;4364;52.426;9.424;2023-06-24T04:44:50;101982.47;;;14.01;97.39
8653;BME280;4364;52.426;9.424;2023-06-24T04:47:19;101986.84;;;14.02;97.40
8653;BME280;4364;52.426;9.424;2023-06-24T04:49:45;101983.03;;;14.08;97.00
8653;BME280;4364;52.426;9.424;2023-06-24T04:52:12;101985.25;;;14.17;96.86
8653;BME280;4364;52.426;9.424;2023-06-24T04:54:39;101990.41;;;14.13;97.41
8653;BME280;4364;52.426;9.424;2023-06-24T04:57:07;101996.75;;;14.19;97.59
8653;BME280;4364;52.426;9.424;2023-06-24T04:59:34;101991.03;;;14.31;97.59
8653;BME280;4364;52.426;9.424;2023-06-24T05:02:01;101997.63;;;14.45;96.55
8653;BME280;4364;52.426;9.424;2023-06-24T05:04:28;101994.31;;;14.43;95.80
8653;BME280;4364;52.426;9.424;2023-06-24T05:06:54;101992.69;;;14.52;96.03
8653;BME280;4364;52.426;9.424;2023-06-24T05:09:20;101984.25;;;14.59;95.83
8653;BME280;4364;52.426;9.424;2023-06-24T05:11:47;101994.09;;;14.60;95.31
8653;BME280;4364;52.426;9.424;2023-06-24T05:14:13;101989.72;;;14.69;95.16
8653;BME280;4364;52.426;9.424;2023-06-24T05:16:40;101990.81;;;14.73;94.28
8653;BME280;4364;52.426;9.424;2023-06-24T05:19:06;101999.88;;;14.79;94.70
8653;BME280;4364;52.426;9.424;2023-06-24T05:21:33;102009.16;;;14.88;94.20
8653;BME280;4364;52.426;9.424;2023-06-24T05:24:00;102013.00;;;14.97;94.35
8653;BME280;4364;52.426;9.424;2023-06-24T05:26:26;102010.78;;;15.10;92.84
8653;BME280;4364;52.426;9.424;2023-06-24T05:28:53;102004.22;;;15.16;92.91
8653;BME280;4364;52.426;9.424;2023-06-24T05:31:19;102008.34;;;15.24;91.69
8653;BME280;4364;52.426;9.424;2023-06-24T05:33:46;102001.19;;;15.23;92.29
8653;BME280;4364;52.426;9.424;2023-06-24T05:36:12;101994.31;;;15.41;91.23
8653;BME280;4364;52.426;9.424;2023-06-24T05:38:39;101996.72;;;15.57;91.50
8653;BME280;4364;52.426;9.424;2023-06-24T05:41:05;101997.75;;;15.87;89.98
8653;BME280;4364;52.426;9.424;2023-06-24T05:43:32;101999.75;;;16.21;88.62
8653;BME280;4364;52.426;9.424;2023-06-24T05:45:59;102000.91;;;16.55;87.49
8653;BME280;4364;52.426;9.424;2023-06-24T05:48:25;102001.81;;;16.84;83.66
8653;BME280;4364;52.426;9.424;2023-06-24T05:50:52;102013.03;;;17.22;83.71
8653;BME280;4364;52.426;9.424;2023-06-24T05:53:18;102011.66;;;17.49;80.65
8653;BME280;4364;52.426;9.424;2023-06-24T05:55:45;102008.34;;;17.71;79.79
8653;BME280;4364;52.426;9.424;2023-06-24T05:58:11;102004.19;;;17.98;77.64
8653;BME280;4364;52.426;9.424;2023-06-24T06:00:38;101992.53;;;18.25;76.81
8653;BME280;4364;52.426;9.424;2023-06-24T06:03:04;101989.84;;;18.39;74.54
8653;BME280;4364;52.426;9.424;2023-06-24T06:05:31;101986.41;;;18.47;74.72
8653;BME280;4364;52.426;9.424;2023-06-24T06:07:58;101997.72;;;18.65;73.96
8653;BME280;4364;52.426;9.424;2023-06-24T06:10:24;101996.50;;;18.90;72.44
8653;BME280;4364;52.426;9.424;2023-06-24T06:12:51;102004.28;;;19.02;71.39
8653;BME280;4364;52.426;9.424;2023-06-24T06:15:19;102007.66;;;18.99;72.20
8653;BME280;4364;52.426;9.424;2023-06-24T06:17:46;102000.44;;;19.31;71.45
8653;BME280;4364;52.426;9.424;2023-06-24T06:20:13;102006.50;;;19.60;70.39
8653;BME280;4364;52.426;9.424;2023-06-24T06:22:39;102002.91;;;19.74;69.86
8653;BME280;4364;52.426;9.424;2023-06-24T06:25:06;102002.31;;;20.05;68.56
8653;BME280;4364;52.426;9.424;2023-06-24T06:27:33;102005.28;;;20.31;67.79
8653;BME280;4364;52.426;9.424;2023-06-24T06:30:00;102001.41;;;20.32;66.83
8653;BME280;4364;52.426;9.424;2023-06-24T06:32:27;102008.72;;;20.50;67.18
8653;BME280;4364;52.426;9.424;2023-06-24T06:34:57;102001.72;;;20.67;66.39
8653;BME280;4364;52.426;9.424;2023-06-24T06:37:24;102010.41;;;20.60;65.11
8653;BME280;4364;52.426;9.424;2023-06-24T06:39:50;102007.13;;;20.35;66.00
8653;BME280;4364;52.426;9.424;2023-06-24T06:42:16;102006.81;;;20.37;65.17
8653;BME280;4364;52.426;9.424;2023-06-24T06:44:43;102004.38;;;20.35;65.86
8653;BME280;4364;52.426;9.424;2023-06-24T06:47:10;102004.50;;;20.30;65.75
8653;BME280;4364;52.426;9.424;2023-06-24T06:49:37;102000.00;;;20.21;66.07
8653;BME280;4364;52.426;9.424;2023-06-24T06:52:03;101997.44;;;20.24;65.89
8653;BME280;4364;52.426;9.424;2023-06-24T06:54:30;101992.94;;;20.51;66.18
8653;BME280;4364;52.426;9.424;2023-06-24T06:57:03;101994.66;;;20.61;64.83
8653;BME280;4364;52.426;9.424;2023-06-24T06:59:31;101997.09;;;20.62;65.35
8653;BME280;4364;52.426;9.424;2023-06-24T07:01:58;101988.19;;;20.88;64.76
8653;BME280;4364;52.426;9.424;2023-06-24T07:04:24;102001.84;;;21.16;62.32
8653;BME280;4364;52.426;9.424;2023-06-24T07:06:51;102000.16;;;21.37;61.72
8653;BME280;4364;52.426;9.424;2023-06-24T07:09:19;101997.75;;;21.44;61.10
8653;BME280;4364;52.426;9.424;2023-06-24T07:11:46;102004.53;;;21.70;60.58
8653;BME280;4364;52.426;9.424;2023-06-24T07:14:12;102006.69;;;21.41;59.16
8653;BME280;4364;52.426;9.424;2023-06-24T07:16:39;102008.22;;;21.48;59.73
8653;BME280;4364;52.426;9.424;2023-06-24T07:19:05;102014.31;;;21.76;59.19
8653;BME280;4364;52.426;9.424;2023-06-24T07:21:32;102011.72;;;21.71;59.89
8653;BME280;4364;52.426;9.424;2023-06-24T07:23:58;102022.25;;;21.60;59.21
8653;BME280;4364;52.426;9.424;2023-06-24T07:26:25;102028.28;;;21.62;57.22
8653;BME280;4364;52.426;9.424;2023-06-24T07:28:56;102029.44;;;21.38;57.73
8653;BME280;4364;52.426;9.424;2023-06-24T07:31:36;102035.34;;;21.77;57.59
8653;BME280;4364;52.426;9.424;2023-06-24T07:34:03;102036.16;;;21.86;56.78
8653;BME280;4364;52.426;9.424;2023-06-24T07:36:30;102046.47;;;21.94;54.63
8653;BME280;4364;52.426;9.424;2023-06-24T07:38:56;102034.19;;;21.78;52.82
8653;BME280;4364;52.426;9.424;2023-06-24T07:41:23;102037.44;;;21.80;53.65
8653;BME280;4364;52.426;9.424;2023-06-24T07:43:49;102042.25;;;22.06;53.43
8653;BME280;4364;52.426;9.424;2023-06-24T07:46:17;102043.63;;;22.43;52.83
8653;BME280;4364;52.426;9.424;2023-06-24T07:48:44;102030.09;;;22.33;54.48
8653;BME280;4364;52.426;9.424;2023-06-24T07:51:10;102026.34;;;22.37;53.59
8653;BME280;4364;52.426;9.424;2023-06-24T07:53:37;102028.41;;;22.06;53.72
8653;BME280;4364;52.426;9.424;2023-06-24T07:56:04;102028.44;;;22.32;53.79
8653;BME280;4364;52.426;9.424;2023-06-24T07:58:30;102033.63;;;22.16;53.81
8653;BME280;4364;52.426;9.424;2023-06-24T08:00:56;102031.50;;;22.21;54.14
8653;BME280;4364;52.426;9.424;2023-06-24T08:03:23;102024.22;;;22.52;54.14
8653;BME280;4364;52.426;9.424;2023-06-24T08:05:50;102026.66;;;22.71;53.80
8653;BME280;4364;52.426;9.424;2023-06-24T08:08:16;102029.25;;;22.76;52.83
8653;BME280;4364;52.426;9.424;2023-06-24T08:10:46;102027.66;;;22.57;53.02
8653;BME280;4364;52.426;9.424;2023-06-24T08:13:12;102028.94;;;22.69;52.12
8653;BME280;4364;52.426;9.424;2023-06-24T08:15:39;102028.56;;;22.97;51.58
8653;BME280;4364;52.426;9.424;2023-06-24T08:18:08;102026.66;;;22.71;52.08
8653;BME280;4364;52.426;9.424;2023-06-24T08:20:34;102029.91;;;22.82;53.23
8653;BME280;4364;52.426;9.424;2023-06-24T08:23:01;102024.69;;;22.89;53.23
8653;BME280;4364;52.426;9.424;2023-06-24T08:25:28;102027.94;;;22.73;53.11
8653;BME280;4364;52.426;9.424;2023-06-24T08:27:54;102018.69;;;22.61;54.01
8653;BME280;4364;52.426;9.424;2023-06-24T08:30:20;102021.13;;;22.71;54.26
8653;BME280;4364;52.426;9.424;2023-06-24T08:32:47;102018.66;;;22.78;53.73
8653;BME280;4364;52.426;9.424;2023-06-24T08:35:14;102020.13;;;22.84;54.52
8653;BME280;4364;52.426;9.424;2023-06-24T08:37:41;102015.22;;;22.81;54.83
8653;BME280;4364;52.426;9.424;2023-06-24T08:40:08;102016.56;;;22.57;55.39
8653;BME280;4364;52.426;9.424;2023-06-24T08:42:35;102011.00;;;22.75;54.83
8653;BME280;4364;52.426;9.424;2023-06-24T08:45:02;102008.22;;;22.84;54.81
8653;BME280;4364;52.426;9.424;2023-06-24T08:47:29;102009.63;;;22.99;54.71
8653;BME280;4364;52.426;9.424;2023-06-24T08:50:04;102004.25;;;23.02;53.42
8653;BME280;4364;52.426;9.424;2023-06-24T08:52:32;102004.78;;;22.96;54.18
8653;BME280;4364;52.426;9.424;2023-06-24T08:55:02;102007.38;;;23.01;55.10
8653;BME280;4364;52.426;9.424;2023-06-24T08:57:28;102004.25;;;23.02;54.63
8653;BME280;4364;52.426;9.424;2023-06-24T08:59:55;102005.72;;;23.08;54.69
8653;BME280;4364;52.426;9.424;2023-06-24T09:02:21;102014.19;;;23.03;54.71
8653;BME280;4364;52.426;9.424;2023-06-24T09:04:51;102006.31;;;23.31;53.17
8653;BME280;4364;52.426;9.424;2023-06-24T09:07:27;102003.41;;;23.58;52.85
8653;BME280;4364;52.426;9.424;2023-06-24T09:09:57;102002.63;;;23.48;52.28
8653;BME280;4364;52.426;9.424;2023-06-24T09:12:24;102005.16;;;23.33;52.94
8653;BME280;4364;52.426;9.424;2023-06-24T09:14:52;102009.59;;;23.63;52.18
8653;BME280;4364;52.426;9.424;2023-06-24T09:17:19;101996.00;;;23.71;51.56
8653;BME280;4364;52.426;9.424;2023-06-24T09:19:49;101997.91;;;23.79;50.78
8653;BME280;4364;52.426;9.424;2023-06-24T09:22:16;101994.78;;;23.89;50.55
8653;BME280;4364;52.426;9.424;2023-06-24T09:24:47;101996.50;;;24.02;50.45
8653;BME280;4364;52.426;9.424;2023-06-24T09:27:16;101993.81;;;23.85;50.47
8653;BME280;4364;52.426;9.424;2023-06-24T09:29:44;101977.16;;;24.27;50.64
8653;BME280;4364;52.426;9.424;2023-06-24T09:32:10;101985.47;;;24.48;48.79
8653;BME280;4364;52.426;9.424;2023-06-24T09:34:38;101983.53;;;24.28;49.41
8653;BME280;4364;52.426;9.424;2023-06-24T09:37:05;101986.78;;;24.51;51.04
8653;BME280;4364;52.426;9.424;2023-06-24T09:39:37;101981.28;;;24.42;50.37
8653;BME280;4364;52.426;9.424;2023-06-24T09:42:05;101979.25;;;24.30;50.34
8653;BME280;4364;52.426;9.424;2023-06-24T09:44:33;101977.59;;;24.50;49.34
8653;BME280;4364;52.426;9.424;2023-06-24T09:46:59;101969.00;;;24.43;49.70
8653;BME280;4364;52.426;9.424;2023-06-24T09:49:28;101975.81;;;24.33;50.14
8653;BME280;4364;52.426;9.424;2023-06-24T09:51:57;101972.16;;;24.54;50.02
8653;BME280;4364;52.426;9.424;2023-06-24T09:54:26;101972.69;;;24.56;49.21
8653;BME280;4364;52.426;9.424;2023-06-24T09:57:02;101971.13;;;24.46;49.05
8653;BME280;4364;52.426;9.424;2023-06-24T09:59:30;101968.91;;;24.73;49.19
8653;BME280;4364;52.426;9.424;2023-06-24T10:02:00;101962.63;;;25.09;48.35
8653;BME280;4364;52.426;9.424;2023-06-24T10:04:29;101968.81;;;25.52;48.71
8653;BME280;4364;52.426;9.424;2023-06-24T10:06:56;101968.44;;;25.54;46.86
8653;BME280;4364;52.426;9.424;2023-06-24T10:09:23;101973.19;;;25.41;46.80
8653;BME280;4364;52.426;9.424;2023-06-24T10:11:49;101963.66;;;25.05;48.14
8653;BME280;4364;52.426;9.424;2023-06-24T10:14:16;101955.31;;;25.17;47.41
8653;BME280;4364;52.426;9.424;2023-06-24T10:16:44;101958.84;;;25.26;46.29
8653;BME280;4364;52.426;9.424;2023-06-24T10:19:18;101955.41;;;25.82;45.45
8653;BME280;4364;52.426;9.424;2023-06-24T10:21:58;101947.31;;;26.46;43.95
8653;BME280;4364;52.426;9.424;2023-06-24T10:24:32;101947.44;;;26.50;43.91
8653;BME280;4364;52.426;9.424;2023-06-24T10:27:13;101943.91;;;26.65;45.49
8653;BME280;4364;52.426;9.424;2023-06-24T10:29:45;101940.22;;;26.77;42.78
8653;BME280;4364;52.426;9.424;2023-06-24T10:32:13;101942.50;;;26.59;43.22
8653;BME280;4364;52.426;9.424;2023-06-24T10:34:46;101948.78;;;26.84;43.97
8653;BME280;4364;52.426;9.424;2023-06-24T10:37:20;101941.94;;;27.29;42.67
8653;BME280;4364;52.426;9.424;2023-06-24T10:40:02;101940.78;;;28.01;40.70
8653;BME280;4364;52.426;9.424;2023-06-24T10:47:46;101921.41;;;27.06;42.56
8653;BME280;4364;52.426;9.424;2023-06-24T10:50:15;101914.47;;;27.15;42.24
8653;BME280;4364;52.426;9.424;2023-06-24T10:52:44;101910.31;;;27.09;42.73
8653;BME280;4364;52.426;9.424;2023-06-24T10:55:14;101913.94;;;27.42;42.80
8653;BME280;4364;52.426;9.424;2023-06-24T10:57:41;101907.38;;;27.02;42.09
8653;BME280;4364;52.426;9.424;2023-06-24T11:00:08;101910.94;;;27.50;41.96
8653;BME280;4364;52.426;9.424;2023-06-24T11:02:35;101904.38;;;27.27;42.15
8653;BME280;4364;52.426;9.424;2023-06-24T11:05:04;101904.84;;;26.97;42.04
8653;BME280;4364;52.426;9.424;2023-06-24T11:07:36;101896.22;;;26.70;42.66
8653;BME280;4364;52.426;9.424;2023-06-24T11:10:09;101896.13;;;26.67;42.65
8653;BME280;4364;52.426;9.424;2023-06-24T11:12:40;101894.94;;;26.68;42.54
8653;BME280;4364;52.426;9.424;2023-06-24T11:15:08;101891.69;;;26.97;42.54
8653;BME280;4364;52.426;9.424;2023-06-24T11:17:37;101880.16;;;27.31;41.85
8653;BME280;4364;52.426;9.424;2023-06-24T11:20:08;101882.16;;;27.30;42.29
8653;BME280;4364;52.426;9.424;2023-06-24T11:22:36;101880.41;;;27.26;42.77
8653;BME280;4364;52.426;9.424;2023-06-24T11:25:03;101885.19;;;27.25;41.95
8653;BME280;4364;52.426;9.424;2023-06-24T11:27:30;101870.84;;;27.43;42.25
8653;BME280;4364;52.426;9.424;2023-06-24T11:29:59;101883.88;;;27.54;41.57
8653;BME280;4364;52.426;9.424;2023-06-24T11:32:36;101882.84;;;27.43;41.50
8653;BME280;4364;52.426;9.424;2023-06-24T11:35:05;101884.41;;;27.09;41.84
8653;BME280;4364;52.426;9.424;2023-06-24T11:37:32;101878.28;;;27.35;41.37
8653;BME280;4364;52.426;9.424;2023-06-24T11:40:06;101888.31;;;26.88;42.34
8653;BME280;4364;52.426;9.424;2023-06-24T11:42:38;101891.69;;;27.29;41.31
8653;BME280;4364;52.426;9.424;2023-06-24T11:45:08;101889.69;;;27.46;41.73
8653;BME280;4364;52.426;9.424;2023-06-24T11:47:39;101874.00;;;27.96;40.85
8653;BME280;4364;52.426;9.424;2023-06-24T11:50:07;101885.72;;;27.47;41.78
8653;BME280;4364;52.426;9.424;2023-06-24T11:52:46;101869.28;;;26.62;42.33
8653;BME280;4364;52.426;9.424;2023-06-24T11:55:20;101864.53;;;26.78;43.04
8653;BME280;4364;52.426;9.424;2023-06-24T11:57:57;101869.16;;;27.22;42.87
8653;BME280;4364;52.426;9.424;2023-06-24T12:00:31;101869.19;;;26.58;43.99
8653;BME280;4364;52.426;9.424;2023-06-24T12:03:04;101870.28;;;26.25;44.27
8653;BME280;4364;52.426;9.424;2023-06-24T12:05:36;101875.06;;;26.25;43.48
8653;BME280;4364;52.426;9.424;2023-06-24T12:08:07;101868.16;;;26.35;43.56
8653;BME280;4364;52.426;9.424;2023-06-24T12:10:37;101868.34;;;26.42;43.45
8653;BME280;4364;52.426;9.424;2023-06-24T12:13:05;101865.69;;;26.77;43.10
8653;BME280;4364;52.426;9.424;2023-06-24T12:15:32;101865.22;;;27.23;42.29
8653;BME280;4364;52.426;9.424;2023-06-24T12:18:00;101868.75;;;27.04;42.00
8653;BME280;4364;52.426;9.424;2023-06-24T12:20:29;101869.44;;;27.17;42.04
8653;BME280;4364;52.426;9.424;2023-06-24T12:23:02;101861.81;;;26.98;42.02
8653;BME280;4364;52.426;9.424;2023-06-24T12:25:32;101866.94;;;27.12;41.66
8653;BME280;4364;52.426;9.424;2023-06-24T12:27:59;101859.13;;;27.02;41.94
8653;BME280;4364;52.426;9.424;2023-06-24T12:30:28;101859.91;;;26.54;44.77
8653;BME280;4364;52.426;9.424;2023-06-24T12:32:54;101857.13;;;26.10;45.54
8653;BME280;4364;52.426;9.424;2023-06-24T12:35:22;101859.31;;;26.17;46.58
8653;BME280;4364;52.426;9.424;2023-06-24T12:37:52;101853.03;;;26.36;45.03
8653;BME280;4364;52.426;9.424;2023-06-24T12:40:18;101852.88;;;26.29;45.09
8653;BME280;4364;52.426;9.424;2023-06-24T12:42:45;101845.53;;;26.84;44.77
8653;BME280;4364;52.426;9.424;2023-06-24T12:45:11;101846.72;;;27.34;42.53
8653;BME280;4364;52.426;9.424;2023-06-24T12:47:38;101853.22;;;27.39;41.97
8653;BME280;4364;52.426;9.424;2023-06-24T12:50:05;101855.28;;;27.26;41.81
8653;BME280;4364;52.426;9.424;2023-06-24T12:52:35;101847.41;;;27.47;41.23
8653;BME280;4364;52.426;9.424;2023-06-24T12:55:03;101845.84;;;27.14;42.13
8653;BME280;4364;52.426;9.424;2023-06-24T12:57:30;101847.06;;;27.49;42.39
8653;BME280;4364;52.426;9.424;2023-06-24T12:59:57;101842.97;;;27.82;41.26
8653;BME280;4364;52.426;9.424;2023-06-24T13:02:23;101844.00;;;27.93;40.47
8653;BME280;4364;52.426;9.424;2023-06-24T13:04:50;101836.19;;;28.02;41.38
8653;BME280;4364;52.426;9.424;2023-06-24T13:07:16;101840.28;;;27.69;39.49
8653;BME280;4364;52.426;9.424;2023-06-24T13:09:43;101840.28;;;27.30;40.19
8653;BME280;4364;52.426;9.424;2023-06-24T13:12:09;101836.25;;;26.96;41.60
8653;BME280;4364;52.426;9.424;2023-06-24T13:14:36;101835.91;;;26.82;41.90
8653;BME280;4364;52.426;9.424;2023-06-24T13:17:04;101834.19;;;26.45;43.31
8653;BME280;4364;52.426;9.424;2023-06-24T13:19:31;101839.28;;;26.27;43.86
8653;BME280;4364;52.426;9.424;2023-06-24T13:21:59;101831.94;;;26.35;42.31
8653;BME280;4364;52.426;9.424;2023-06-24T13:24:25;101828.81;;;26.68;41.94
8653;BME280;4364;52.426;9.424;2023-06-24T13:26:52;101832.13;;;26.74;41.55
8653;BME280;4364;52.426;9.424;2023-06-24T13:29:18;101830.75;;;26.99;40.70
8653;BME280;4364;52.426;9.424;2023-06-24T13:31:46;101825.13;;;27.31;40.08